createdAt,value
2018-07-19T00:04:07.558Z,5.77
2018-07-19T00:09:10.867Z,6.70
2018-07-19T00:14:13.970Z,6.07
2018-07-19T00:19:20.644Z,6.10
2018-07-19T00:24:23.762Z,6.30
2018-07-19T00:29:26.818Z,5.37
2018-07-19T00:34:29.853Z,5.47
2018-07-19T00:39:32.896Z,5.13
2018-07-19T00:44:36.002Z,4.80
2018-07-19T00:49:39.071Z,4.33
2018-07-19T00:54:42.190Z,4.67
2018-07-19T00:59:45.328Z,4.10
2018-07-19T01:04:48.395Z,4.20
2018-07-19T01:09:51.502Z,4.77
2018-07-19T01:14:54.615Z,4.67
2018-07-19T01:19:57.666Z,4.00
2018-07-19T01:25:00.840Z,4.00
2018-07-19T01:30:04.411Z,4.30
2018-07-19T01:35:07.515Z,4.20
2018-07-19T01:40:10.563Z,3.50
2018-07-19T01:45:14.168Z,4.00
2018-07-19T01:50:17.228Z,3.47
2018-07-19T01:55:20.245Z,3.33
2018-07-19T02:00:23.275Z,3.17
2018-07-19T02:05:26.327Z,3.10
2018-07-19T02:10:29.360Z,3.07
2018-07-19T02:15:32.369Z,3.00
2018-07-19T02:20:35.378Z,2.90
2018-07-19T02:25:38.370Z,2.93
2018-07-19T02:30:41.366Z,2.70
2018-07-19T02:35:44.395Z,3.30
2018-07-19T02:40:47.425Z,2.47
2018-07-19T02:45:50.475Z,2.60
2018-07-19T02:50:53.478Z,2.57
2018-07-19T02:55:56.490Z,2.07
2018-07-19T03:00:59.516Z,2.33
2018-07-19T03:06:02.615Z,3.10
2018-07-19T03:11:05.771Z,2.77
2018-07-19T03:16:08.814Z,2.23
2018-07-19T03:21:12.022Z,2.90
2018-07-19T03:26:15.074Z,2.63
2018-07-19T03:31:18.322Z,2.80
2018-07-19T03:36:21.327Z,2.47
2018-07-19T03:41:24.330Z,2.80
2018-07-19T03:46:27.362Z,2.80
2018-07-19T03:51:30.417Z,2.67
2018-07-19T03:56:33.430Z,2.50
2018-07-19T04:01:36.460Z,2.40
2018-07-19T04:06:39.463Z,3.00
2018-07-19T04:11:42.484Z,2.37
2018-07-19T04:16:45.534Z,2.47
2018-07-19T04:21:48.669Z,2.43
2018-07-19T04:26:51.731Z,2.53
2018-07-19T04:31:54.723Z,2.73
2018-07-19T04:36:57.790Z,2.47
2018-07-19T04:42:00.891Z,2.67
2018-07-19T04:47:03.887Z,2.80
2018-07-19T04:52:06.992Z,2.77
2018-07-19T04:57:10.008Z,2.77
2018-07-19T05:02:13.054Z,2.70
2018-07-19T05:07:16.081Z,2.97
2018-07-19T05:12:19.255Z,2.83
2018-07-19T05:17:22.290Z,2.40
2018-07-19T05:22:25.371Z,2.57
2018-07-19T05:27:28.416Z,2.60
2018-07-19T05:32:31.512Z,4.83
2018-07-19T05:37:34.566Z,2.60
2018-07-19T05:42:37.641Z,3.10
2018-07-19T05:47:40.686Z,4.23
2018-07-19T05:52:43.749Z,3.30
2018-07-19T05:57:46.748Z,3.03
2018-07-19T06:02:49.774Z,3.40
2018-07-19T06:07:52.922Z,3.00
2018-07-19T06:12:55.964Z,3.10
2018-07-19T06:17:59.067Z,3.23
2018-07-19T06:23:02.098Z,3.73
2018-07-19T06:28:05.199Z,3.80
2018-07-19T06:33:08.271Z,3.13
2018-07-19T06:38:11.319Z,4.37
2018-07-19T06:43:14.356Z,3.40
2018-07-19T06:48:17.439Z,3.80
2018-07-19T06:53:20.462Z,3.50
2018-07-19T06:58:23.477Z,4.40
2018-07-19T07:03:26.584Z,4.00
2018-07-19T07:08:29.603Z,3.87
2018-07-19T07:13:32.610Z,3.50
2018-07-19T07:18:35.653Z,4.57
2018-07-19T07:23:38.698Z,3.87
2018-07-19T07:28:42.865Z,4.13
2018-07-19T07:33:45.943Z,5.07
2018-07-19T07:38:49.023Z,5.17
2018-07-19T07:43:52.068Z,5.10
2018-07-19T07:48:55.163Z,4.57
2018-07-19T07:53:58.272Z,4.13
2018-07-19T07:59:01.322Z,4.20
2018-07-19T08:04:04.944Z,4.77
2018-07-19T08:09:08.943Z,4.37
2018-07-19T08:14:12.122Z,5.63
2018-07-19T08:19:15.184Z,5.20
2018-07-19T08:24:18.249Z,4.60
2018-07-19T08:29:21.277Z,4.90
2018-07-19T08:34:24.342Z,5.03
2018-07-19T08:39:27.390Z,4.90
2018-07-19T08:44:30.551Z,5.63
2018-07-19T08:49:33.618Z,4.67
2018-07-19T08:54:36.845Z,5.10
2018-07-19T08:59:39.984Z,4.50
2018-07-19T09:04:43.186Z,4.80
2018-07-19T09:09:46.240Z,4.90
2018-07-19T09:14:49.426Z,4.90
2018-07-19T09:19:52.448Z,5.03
2018-07-19T09:24:55.609Z,4.57
2018-07-19T09:29:58.635Z,5.43
2018-07-19T09:35:01.797Z,5.90
2018-07-19T09:40:04.978Z,5.00
2018-07-19T09:45:08.173Z,5.57
2018-07-19T09:50:11.194Z,5.23
2018-07-19T09:55:15.644Z,6.43
2018-07-19T10:00:24.055Z,5.50
2018-07-19T10:05:27.077Z,5.73
2018-07-19T10:10:30.158Z,4.90
2018-07-19T10:15:33.229Z,5.03
2018-07-19T10:20:36.253Z,5.17
2018-07-19T10:25:39.290Z,4.77
2018-07-19T10:30:42.317Z,5.57
2018-07-19T10:35:45.375Z,5.23
2018-07-19T10:40:48.383Z,4.40
2018-07-19T10:45:51.441Z,4.80
2018-07-19T10:50:54.333Z,4.67
2018-07-19T10:55:57.374Z,4.80
2018-07-19T11:01:00.408Z,4.77
2018-07-19T11:06:03.410Z,4.43
2018-07-19T11:11:06.560Z,4.00
2018-07-19T11:16:09.602Z,4.50
2018-07-19T11:21:12.606Z,4.70
2018-07-19T11:26:15.625Z,4.77
2018-07-19T11:31:18.719Z,4.30
2018-07-19T11:36:21.834Z,3.90
2018-07-19T11:41:24.881Z,4.00
2018-07-19T11:46:27.914Z,4.97
2018-07-19T11:51:30.983Z,4.20
2018-07-19T11:56:34.045Z,4.37
2018-07-19T12:01:37.080Z,4.13
2018-07-19T12:06:40.121Z,3.77
2018-07-19T12:11:43.160Z,3.90
2018-07-19T12:16:46.226Z,4.40
2018-07-19T12:21:49.158Z,4.43
2018-07-19T12:26:52.508Z,4.20
2018-07-19T12:31:55.705Z,4.20
2018-07-19T12:36:58.806Z,4.03
2018-07-19T12:42:01.890Z,3.83
2018-07-19T12:47:05.148Z,3.90
2018-07-19T12:52:08.201Z,3.67
2018-07-19T12:57:11.265Z,3.43
2018-07-19T13:02:14.308Z,3.00
2018-07-19T13:07:17.300Z,3.40
2018-07-19T13:12:20.311Z,2.77
2018-07-19T13:17:23.419Z,2.87
2018-07-19T13:22:26.424Z,3.00
2018-07-19T13:27:29.554Z,2.23
2018-07-19T13:32:32.588Z,2.73
2018-07-19T13:37:35.658Z,2.63
2018-07-19T13:42:38.758Z,3.20
2018-07-19T13:47:41.851Z,1.97
2018-07-19T13:52:56.406Z,2.93
2018-07-19T13:57:59.411Z,2.50
2018-07-19T14:03:02.540Z,2.53
2018-07-19T14:08:05.655Z,2.20
2018-07-19T14:13:08.782Z,2.00
2018-07-19T14:18:11.947Z,2.10
2018-07-19T14:23:15.058Z,2.00
2018-07-19T14:28:18.178Z,2.00
2018-07-19T14:33:21.178Z,1.30
2018-07-19T14:38:24.178Z,1.63
2018-07-19T14:43:27.289Z,2.00
2018-07-19T14:48:30.297Z,1.87
2018-07-19T14:53:33.345Z,1.70
2018-07-19T14:58:36.370Z,1.60
2018-07-19T15:03:39.476Z,1.60
2018-07-19T15:08:42.494Z,1.93
2018-07-19T15:13:45.610Z,2.10
2018-07-19T15:18:48.666Z,2.10
2018-07-19T15:23:51.731Z,1.50
2018-07-19T15:28:54.815Z,1.73
2018-07-19T15:33:57.812Z,1.83
2018-07-19T15:39:00.911Z,2.27
2018-07-19T15:44:03.937Z,1.57
2018-07-19T15:49:07.024Z,2.00
2018-07-19T15:54:10.044Z,2.10
2018-07-19T15:59:13.034Z,2.57
2018-07-19T16:04:16.137Z,2.60
2018-07-19T16:09:19.250Z,2.10
2018-07-19T16:14:22.393Z,1.90
2018-07-19T16:19:25.445Z,3.33
2018-07-19T16:24:28.555Z,2.47
2018-07-19T16:29:31.560Z,2.00
2018-07-19T16:34:34.676Z,2.27
2018-07-19T16:39:37.716Z,2.77
2018-07-19T16:44:40.771Z,2.93
2018-07-19T16:49:43.831Z,2.50
2018-07-19T16:54:47.075Z,2.60
2018-07-19T16:59:50.103Z,2.80
2018-07-19T17:04:53.186Z,3.13
2018-07-19T17:09:56.200Z,2.90
2018-07-19T17:14:59.318Z,2.73
2018-07-19T17:20:02.379Z,2.97
2018-07-19T17:25:05.502Z,2.20
2018-07-19T17:30:08.530Z,2.37
2018-07-19T17:35:11.567Z,2.30
2018-07-19T17:40:14.990Z,2.40
2018-07-19T17:45:18.428Z,3.03
2018-07-19T17:50:21.792Z,2.80
2018-07-19T17:55:25.401Z,3.30
2018-07-19T18:00:28.790Z,2.63
2018-07-19T18:05:32.239Z,2.33
2018-07-19T18:10:35.395Z,3.00
2018-07-19T18:15:38.822Z,3.70
2018-07-19T18:20:41.832Z,3.17
2018-07-19T18:25:44.835Z,3.23
2018-07-19T18:30:47.857Z,2.60
2018-07-19T18:35:50.934Z,2.73
2018-07-19T18:40:53.960Z,2.73
2018-07-19T18:45:56.959Z,3.30
2018-07-19T18:50:59.942Z,2.47
2018-07-19T18:56:02.976Z,2.67
2018-07-19T19:01:05.856Z,2.53
2018-07-19T19:06:08.846Z,2.23
2018-07-19T19:11:11.908Z,2.90
2018-07-19T19:16:14.964Z,2.90
2018-07-19T19:21:17.823Z,2.80
2018-07-19T19:26:21.070Z,2.53
2018-07-19T19:31:24.116Z,2.50
2018-07-19T19:36:27.148Z,2.27
2018-07-19T19:41:30.182Z,2.57
2018-07-19T19:46:33.234Z,2.80
2018-07-19T19:51:36.362Z,2.20
2018-07-19T19:56:39.403Z,2.97
2018-07-19T20:01:42.415Z,3.17
2018-07-19T20:06:45.426Z,2.87
2018-07-19T20:11:48.516Z,2.53
2018-07-19T20:16:51.386Z,2.53
2018-07-19T20:21:54.426Z,3.33
2018-07-19T20:26:57.508Z,3.30
2018-07-19T20:32:00.494Z,3.47
2018-07-19T20:37:03.526Z,2.47
2018-07-19T20:42:06.598Z,2.80
2018-07-19T20:47:09.830Z,2.80
2018-07-19T20:52:12.831Z,2.80
2018-07-19T20:57:15.842Z,3.10
2018-07-19T21:02:19.117Z,2.93
2018-07-19T21:07:22.269Z,3.33
2018-07-19T21:12:25.284Z,4.87
2018-07-19T21:17:28.327Z,3.83
2018-07-19T21:22:31.376Z,3.53
2018-07-19T21:27:34.364Z,4.67
2018-07-19T21:32:37.387Z,3.83
2018-07-19T21:37:40.439Z,3.97
2018-07-19T21:42:43.475Z,5.40
2018-07-19T21:47:46.521Z,4.20
2018-07-19T21:52:49.615Z,3.90
2018-07-19T21:57:52.643Z,3.80
2018-07-19T22:02:57.132Z,4.90
2018-07-19T22:08:00.126Z,4.60
2018-07-19T22:13:03.143Z,4.67
2018-07-19T22:18:06.167Z,4.70
2018-07-19T22:23:09.307Z,4.63
2018-07-19T22:28:12.332Z,4.90
2018-07-19T22:33:15.350Z,5.37
2018-07-19T22:38:18.361Z,4.33
2018-07-19T22:43:21.379Z,5.07
2018-07-19T22:48:24.380Z,4.37
2018-07-19T22:53:27.553Z,5.30
2018-07-19T22:58:30.570Z,5.03
2018-07-19T23:03:33.662Z,5.07
2018-07-19T23:08:36.688Z,4.37
2018-07-19T23:13:39.748Z,4.40
2018-07-19T23:18:42.773Z,5.67
2018-07-19T23:23:45.798Z,5.10
2018-07-19T23:28:48.809Z,5.27
2018-07-19T23:33:51.880Z,5.17
2018-07-19T23:38:57.788Z,5.13
2018-07-19T23:44:05.142Z,4.80
2018-07-19T23:49:08.222Z,4.83
2018-07-19T23:54:11.275Z,4.63
2018-07-19T23:59:14.308Z,5.03
